W4IFI Weather Reports


Display with metric or nautical units.
time (UTC)temp
F
wind
direction
speed
MPH
gust
MPH
rain 1hr
in
rain 24hr
in
rain mn
in
humidity
%
barometer
mb
20170624134107 76 340 1.0 4.0 0.00 0.21 0.20 74 1011.3
20170624133207 75 325 1.0 4.0 0.00 0.21 0.20 75 1011.1
20170624132307 75 280 1.0 4.0 0.00 0.21 0.20 78 1011.1
20170624131407 74 283 2.0 4.0 0.00 0.21 0.20 78 1011.1
20170624130507 74 248 2.0 8.0 0.00 0.21 0.20 77 1010.8
20170624125608 74 239 2.0 12.0 0.00 0.21 0.20 79 1010.7
20170624124707 73 242 1.0 4.0 0.00 0.21 0.20 81 1010.8
20170624123807 73 244 2.0 9.0 0.00 0.21 0.20 80 1010.6
20170624122907 72 236 1.0 8.0 0.00 0.21 0.20 83 1010.3
20170624122007 72 246 2.0 7.0 0.00 0.21 0.20 83 1010.2
20170624121108 71 239 1.0 6.0 0.00 0.21 0.20 84 1010.0
20170624120207 70 203 1.0 3.0 0.00 0.21 0.20 86 1009.7
20170624115308 70 0 0.0 0.0 0.00 0.21 0.20 87 1009.5
20170624114407 70 246 0.0 2.0 0.00 0.21 0.20 88 1009.3
20170624113507 69 246 0.0 2.0 0.00 0.21 0.20 88 1009.2
20170624112607 69 232 1.0 4.0 0.00 0.21 0.20 89 1009.2
20170624111707 68 199 1.0 3.0 0.00 0.21 0.20 91 1009.2
20170624110807 68 0 0.0 0.0 0.00 0.21 0.20 92 1008.9
20170624105907 68 0 0.0 0.0 0.00 0.21 0.20 92 1008.8
20170624105007 68 168 0.0 4.0 0.00 0.21 0.20 92 1008.4
20170624104107 68 188 0.0 4.0 0.00 0.21 0.20 93 1008.3
20170624103207 68 217 0.0 2.0 0.00 0.21 0.20 92 1008.0
20170624102307 68 224 1.0 5.0 0.00 0.21 0.20 91 1008.0
20170624101407 68 341 1.0 3.0 0.00 0.21 0.20 92 1007.8
20170624100507 68 326 1.0 2.0 0.00 0.21 0.20 93 1007.5
20170624095607 68 326 0.0 1.0 0.00 0.21 0.20 94 1007.3
20170624094707 68 330 1.0 2.0 0.00 0.21 0.20 94 1007.2
20170624093807 68 2 1.0 2.0 0.00 0.23 0.20 94 1006.9
20170624092907 69 1 1.0 2.0 0.00 0.27 0.20 95 1006.7
20170624092008 69 358 1.0 4.0 0.00 0.31 0.20 94 1006.6
20170624091107 69 3 1.0 3.0 0.01 0.31 0.20 95 1006.4
20170624090207 69 358 1.0 3.0 0.05 0.31 0.20 95 1026.3
20170624085307 69 356 2.0 3.0 0.06 0.31 0.20 94 1006.3
20170624084407 69 360 3.0 6.0 0.06 0.31 0.20 93 1005.9
20170624083507 70 1 2.0 5.0 0.06 0.32 0.20 93 1005.7
20170624082607 71 1 2.0 4.0 0.06 0.32 0.20 92 1005.4
20170624081707 72 7 1.0 6.0 0.06 0.32 0.20 93 1005.2
20170624080807 73 249 2.0 8.0 0.05 0.31 0.19 94 1004.3
20170624075907 74 246 2.0 8.0 0.00 0.26 0.14 93 1004.0
20170624075007 73 252 2.0 11.0 0.00 0.26 0.14 94 1003.5
20170624074107 73 264 2.0 6.0 0.00 0.26 0.14 94 1003.4
20170624073207 73 267 1.0 7.0 0.00 0.26 0.14 95 1003.2
20170624072307 73 256 1.0 6.0 0.00 0.26 0.14 94 1003.1
20170624071407 73 267 1.0 4.0 0.00 0.26 0.14 95 1003.0
20170624070507 73 237 1.0 4.0 0.01 0.26 0.14 95 1003.3
20170624065607 73 243 0.0 4.0 0.02 0.26 0.14 95 1003.6
20170624064707 73 0 0.0 0.0 0.04 0.26 0.14 95 1003.7
20170624063807 73 239 0.0 2.0 0.05 0.26 0.14 95 1003.8
20170624062907 73 223 0.0 3.0 0.06 0.26 0.14 95 1003.9
20170624062007 73 218 0.0 3.0 0.07 0.26 0.14 94 1004.3
20170624061107 73 259 0.0 3.0 0.06 0.25 0.13 95 1004.7
20170624060207 73 0 0.0 0.0 0.08 0.25 0.13 94 1004.9
20170624055307 73 0 0.0 0.0 0.07 0.23 0.11 94 1005.2
20170624054407 74 287 0.0 2.0 0.07 0.21 0.09 94 1005.6
20170624053507 74 287 0.0 3.0 0.08 0.21 0.09 92 1005.6
20170624052607 74 247 2.0 9.0 0.08 0.20 0.08 91 1005.8
20170624051707 74 261 2.0 9.0 0.07 0.19 0.07 90 1005.8
20170624050807 75 261 3.0 10.0 0.05 0.17 0.05 88 1006.1
20170624045907 76 263 4.0 13.0 0.04 0.16 0.04 86 1006.1
20170624045007 77 257 4.0 13.0 0.03 0.15 0.03 84 1006.3
20170624044107 78 261 4.0 13.0 0.01 0.13 0.01 81 1006.3
20170624043207 80 253 3.0 11.0 0.00 0.12 0.00 76 1006.4
20170624042307 80 254 4.0 12.0 0.00 0.12 0.00 74 1006.4
20170624041407 80 260 3.0 14.0 0.00 0.12 0.00 74 1006.4
20170624040508 80 256 3.0 14.0 0.00 0.12 0.00 75 1006.6
20170624035607 80 263 3.0 13.0 0.00 0.12 0.12 75 1006.6
20170624034707 80 258 4.0 13.0 0.00 0.12 0.12 76 1006.6
20170624033807 80 260 3.0 12.0 0.00 0.12 0.12 77 1006.7
20170624032907 80 257 3.0 11.0 0.00 0.12 0.12 77 1006.6
20170624032007 80 256 3.0 9.0 0.00 0.12 0.12 78 1006.7
20170624031107 79 254 3.0 12.0 0.00 0.12 0.12 79 1006.8
20170624030207 79 268 2.0 7.0 0.00 0.12 0.12 79 1006.8
20170624025307 79 268 2.0 8.0 0.00 0.12 0.12 80 1007.0
20170624024407 79 276 3.0 9.0 0.00 0.12 0.12 81 1007.1
20170624023507 79 262 1.0 7.0 0.00 0.12 0.12 81 1007.2
20170624022607 79 338 1.0 3.0 0.00 0.12 0.12 81 1007.2
20170624021707 79 267 2.0 8.0 0.00 0.12 0.12 81 1007.2
20170624020807 79 267 1.0 3.0 0.00 0.12 0.12 81 1007.3
20170624015907 79 283 0.0 4.0 0.00 0.12 0.12 80 1007.3
20170624015007 80 270 1.0 6.0 0.00 0.12 0.12 79 1007.4
20170624014107 80 284 0.0 2.0 0.00 0.12 0.12 79 1007.5
20170624013207 80 262 1.0 3.0 0.00 0.12 0.12 78 1007.4
20170624012307 80 273 1.0 4.0 0.00 0.12 0.12 77 1007.3
20170624011407 81 289 1.0 4.0 0.00 0.12 0.12 77 1007.3
20170624010507 81 256 2.0 11.0 0.00 0.12 0.12 76 1007.3
20170624005607 81 266 2.0 9.0 0.00 0.12 0.12 76 1007.3
20170624004707 81 261 2.0 11.0 0.00 0.12 0.12 75 1007.4
20170624003807 81 258 3.0 13.0 0.00 0.12 0.12 75 1007.4
20170624002907 81 261 3.0 10.0 0.00 0.12 0.12 75 1007.4
20170624002007 82 259 2.0 12.0 0.00 0.12 0.12 75 1007.4
20170624001107 82 256 4.0 13.0 0.00 0.12 0.12 75 1007.5
20170624000207 82 250 3.0 12.0 0.00 0.12 0.12 75 1007.4
20170623235307 82 256 3.0 10.0 0.00 0.12 0.12 75 1007.4
20170623234407 82 249 4.0 12.0 0.00 0.12 0.12 75 1007.2
20170623233507 82 259 2.0 8.0 0.00 0.12 0.12 75 1007.1
20170623232607 82 252 3.0 12.0 0.00 0.12 0.12 74 1007.0
20170623231707 82 256 4.0 12.0 0.00 0.12 0.12 74 1006.9
20170623230807 82 254 3.0 10.0 0.00 0.12 0.12 75 1007.1
20170623225907 82 254 3.0 11.0 0.00 0.12 0.12 74 1007.2
20170623225007 82 254 4.0 11.0 0.00 0.12 0.12 74 1007.1
20170623224107 83 259 4.0 11.0 0.00 0.12 0.12 74 1007.1
20170623223207 83 256 3.0 18.0 0.00 0.12 0.12 73 1007.2
20170623222307 83 252 3.0 11.0 0.00 0.12 0.12 74 1007.4
20170623221407 83 255 2.0 9.0 0.00 0.12 0.12 73 1007.4
20170623220507 83 263 2.0 10.0 0.00 0.12 0.12 72 1007.4
20170623215607 83 262 4.0 11.0 0.00 0.12 0.12 70 1007.3
20170623214707 82 263 3.0 8.0 0.00 0.12 0.12 70 1007.3
20170623213807 82 257 3.0 12.0 0.00 0.12 0.12 71 1007.5
20170623212907 82 252 4.0 10.0 0.00 0.12 0.12 70 1007.5
20170623212007 81 244 3.0 13.0 0.00 0.12 0.12 72 1007.6
20170623211107 82 254 4.0 15.0 0.00 0.12 0.12 72 1007.8
20170623210207 82 258 3.0 11.0 0.00 0.12 0.12 75 1007.8
20170623205307 82 273 3.0 11.0 0.00 0.12 0.12 75 1007.6
20170623204407 81 263 4.0 14.0 0.00 0.12 0.12 78 1007.6
20170623203507 81 252 4.0 12.0 0.00 0.12 0.12 79 1008.0
20170623202607 80 254 2.0 9.0 0.01 0.12 0.12 85 1008.2
20170623201707 78 271 2.0 7.0 0.01 0.12 0.12 88 1008.4
20170623200807 78 248 3.0 13.0 0.01 0.12 0.12 88 1008.6
20170623195907 78 251 3.0 8.0 0.01 0.12 0.12 87 1008.7
20170623195007 78 265 3.0 12.0 0.01 0.12 0.12 87 1008.9
20170623194107 78 262 4.0 11.0 0.01 0.12 0.12 86 1009.1
20170623193207 78 265 3.0 10.0 0.01 0.12 0.12 85 1009.1
20170623192307 79 260 4.0 16.0 0.00 0.11 0.11 82 1009.3
20170623191407 80 267 4.0 10.0 0.00 0.11 0.11 79 1009.3
20170623190507 81 249 4.0 11.0 0.00 0.11 0.11 78 1009.5
20170623185607 82 246 5.0 17.0 0.00 0.11 0.11 76 1009.4
20170623184707 83 252 6.0 17.0 0.00 0.11 0.11 74 1009.3
20170623183807 83 265 5.0 14.0 0.00 0.11 0.11 73 1009.2
20170623182907 82 270 3.0 11.0 0.00 0.11 0.11 77 1009.4
20170623182007 81 256 5.0 17.0 0.00 0.11 0.11 78 1009.5
20170623181107 81 259 4.0 11.0 0.00 0.11 0.11 78 1009.6
20170623180207 81 255 5.0 11.0 0.00 0.11 0.11 78 1009.8
20170623175307 81 249 4.0 14.0 0.00 0.11 0.11 77 1009.7
20170623174407 81 256 5.0 17.0 0.00 0.11 0.11 76 1009.8
20170623173507 81 248 3.0 12.0 0.00 0.11 0.11 78 1009.5
20170623172607 80 265 4.0 12.0 0.00 0.11 0.11 79 1009.6
20170623171707 80 262 3.0 11.0 0.00 0.11 0.11 81 1009.9
20170623170807 80 253 1.0 10.0 0.00 0.11 0.11 80 1010.1
20170623165907 79 264 3.0 12.0 0.00 0.11 0.11 81 1010.2
20170623165007 80 262 2.0 8.0 0.00 0.11 0.11 81 1010.0
20170623164107 80 255 4.0 10.0 0.00 0.11 0.11 80 1010.2
20170623163207 80 255 4.0 10.0 0.00 0.11 0.11 79 1010.2
20170623162307 80 256 3.0 9.0 0.00 0.11 0.11 78 1010.3
20170623161407 81 260 2.0 9.0 0.00 0.11 0.11 78 1010.4
20170623160507 81 264 3.0 14.0 0.00 0.11 0.11 79 1010.4
20170623155607 81 255 4.0 10.0 0.00 0.11 0.11 79 1010.4
20170623154707 81 259 3.0 9.0 0.00 0.11 0.11 79 1010.4
20170623153807 82 251 3.0 15.0 0.00 0.11 0.11 78 1010.5
20170623152907 80 256 4.0 15.0 0.00 0.11 0.11 80 1010.6
20170623152007 80 249 4.0 12.0 0.00 0.11 0.11 81 1010.5
20170623151107 79 251 4.0 19.0 0.00 0.11 0.11 82 1010.8
20170623150207 79 259 4.0 13.0 0.00 0.11 0.11 83 1010.9
20170623145307 79 258 5.0 16.0 0.00 0.11 0.11 83 1011.0
20170623144407 79 253 4.0 16.0 0.00 0.11 0.11 82 1011.0
20170623143507 78 243 2.0 9.0 0.00 0.11 0.11 85 1011.0
20170623142607 77 264 3.0 10.0 0.00 0.11 0.11 85 1011.1
20170623141707 77 249 2.0 11.0 0.00 0.11 0.11 88 1011.2
20170623140807 76 254 3.0 10.0 0.00 0.11 0.11 89 1011.3
20170623135907 75 247 3.0 12.0 0.00 0.11 0.11 91 1011.4
20170623135007 74 245 2.0 10.0 0.00 0.11 0.11 92 1011.6